sensor_id;sensor_type;location;lat;lon;timestamp;pressure;altitude;pressure_sealevel;temperature;humidity
12793;BME280;6460;42.684;23.260;2024-01-16T00:02:10;93113.59;;;3.49;94.51
12793;BME280;6460;42.684;23.260;2024-01-16T00:04:40;93114.94;;;3.08;94.72
12793;BME280;6460;42.684;23.260;2024-01-16T00:07:08;93122.63;;;3.13;95.70
12793;BME280;6460;42.684;23.260;2024-01-16T00:09:36;93105.72;;;3.53;95.60
12793;BME280;6460;42.684;23.260;2024-01-16T00:12:05;93115.25;;;3.38;94.67
12793;BME280;6460;42.684;23.260;2024-01-16T00:14:35;93118.53;;;3.66;94.78
12793;BME280;6460;42.684;23.260;2024-01-16T00:17:04;93126.28;;;3.75;94.28
12793;BME280;6460;42.684;23.260;2024-01-16T00:19:32;93112.19;;;3.90;93.96
12793;BME280;6460;42.684;23.260;2024-01-16T00:22:01;93116.53;;;3.79;93.15
12793;BME280;6460;42.684;23.260;2024-01-16T00:24:31;93123.94;;;3.70;94.38
12793;BME280;6460;42.684;23.260;2024-01-16T00:26:59;93110.31;;;3.56;94.05
12793;BME280;6460;42.684;23.260;2024-01-16T00:29:26;93137.88;;;3.16;94.42
12793;BME280;6460;42.684;23.260;2024-01-16T00:31:54;93127.78;;;3.06;97.02
12793;BME280;6460;42.684;23.260;2024-01-16T00:34:22;93127.47;;;3.43;95.91
12793;BME280;6460;42.684;23.260;2024-01-16T00:36:50;93138.09;;;3.43;94.20
12793;BME280;6460;42.684;23.260;2024-01-16T00:39:20;93117.41;;;3.17;95.73
12793;BME280;6460;42.684;23.260;2024-01-16T00:41:48;93139.84;;;2.88;94.87
12793;BME280;6460;42.684;23.260;2024-01-16T00:44:15;93128.78;;;3.33;95.50
12793;BME280;6460;42.684;23.260;2024-01-16T00:46:43;93147.19;;;2.63;97.06
12793;BME280;6460;42.684;23.260;2024-01-16T00:49:11;93136.50;;;3.22;97.53
12793;BME280;6460;42.684;23.260;2024-01-16T00:51:39;93133.16;;;3.10;96.48
12793;BME280;6460;42.684;23.260;2024-01-16T00:54:07;93122.03;;;3.04;97.75
12793;BME280;6460;42.684;23.260;2024-01-16T00:56:37;93151.22;;;2.73;97.69
12793;BME280;6460;42.684;23.260;2024-01-16T00:59:05;93137.38;;;2.95;98.08
12793;BME280;6460;42.684;23.260;2024-01-16T01:01:33;93150.38;;;3.00;97.88
12793;BME280;6460;42.684;23.260;2024-01-16T01:04:01;93156.03;;;3.30;97.81
12793;BME280;6460;42.684;23.260;2024-01-16T01:06:29;93163.13;;;3.26;97.43
12793;BME280;6460;42.684;23.260;2024-01-16T01:08:57;93177.66;;;2.85;97.95
12793;BME280;6460;42.684;23.260;2024-01-16T01:11:25;93141.28;;;3.33;97.63
12793;BME280;6460;42.684;23.260;2024-01-16T01:13:55;93160.31;;;3.35;96.04
12793;BME280;6460;42.684;23.260;2024-01-16T01:16:23;93161.63;;;3.09;96.57
12793;BME280;6460;42.684;23.260;2024-01-16T01:18:53;93151.31;;;2.92;98.15
12793;BME280;6460;42.684;23.260;2024-01-16T01:21:21;93162.09;;;2.84;99.27
12793;BME280;6460;42.684;23.260;2024-01-16T01:23:49;93182.66;;;2.87;98.99
12793;BME280;6460;42.684;23.260;2024-01-16T01:26:17;93128.00;;;3.33;98.51
12793;BME280;6460;42.684;23.260;2024-01-16T01:28:46;93154.06;;;2.96;98.92
12793;BME280;6460;42.684;23.260;2024-01-16T01:31:15;93115.72;;;3.09;100.00
12793;BME280;6460;42.684;23.260;2024-01-16T01:33:43;93159.28;;;2.92;100.00
12793;BME280;6460;42.684;23.260;2024-01-16T01:36:11;93128.00;;;3.33;100.00
12793;BME280;6460;42.684;23.260;2024-01-16T01:38:39;93141.53;;;3.43;100.00
12793;BME280;6460;42.684;23.260;2024-01-16T01:41:07;93119.34;;;3.36;100.00
12793;BME280;6460;42.684;23.260;2024-01-16T01:43:38;93138.22;;;3.15;100.00
12793;BME280;6460;42.684;23.260;2024-01-16T01:46:10;93122.41;;;3.53;100.00
12793;BME280;6460;42.684;23.260;2024-01-16T01:48:40;93137.09;;;3.32;100.00
12793;BME280;6460;42.684;23.260;2024-01-16T01:51:09;93139.06;;;3.35;100.00
12793;BME280;6460;42.684;23.260;2024-01-16T01:53:38;93119.97;;;3.64;100.00
12793;BME280;6460;42.684;23.260;2024-01-16T01:56:15;93145.78;;;3.63;99.90
12793;BME280;6460;42.684;23.260;2024-01-16T01:58:44;93156.59;;;3.55;100.00
12793;BME280;6460;42.684;23.260;2024-01-16T02:01:15;93141.00;;;3.88;100.00
12793;BME280;6460;42.684;23.260;2024-01-16T02:03:46;93145.66;;;3.76;100.00
12793;BME280;6460;42.684;23.260;2024-01-16T02:06:14;93154.44;;;3.95;99.27
12793;BME280;6460;42.684;23.260;2024-01-16T02:08:43;93156.41;;;3.98;99.35
12793;BME280;6460;42.684;23.260;2024-01-16T02:11:12;93153.47;;;4.03;100.00
12793;BME280;6460;42.684;23.260;2024-01-16T02:13:41;93138.75;;;3.90;100.00
12793;BME280;6460;42.684;23.260;2024-01-16T02:16:18;93147.16;;;3.92;100.00
12793;BME280;6460;42.684;23.260;2024-01-16T02:18:48;93162.94;;;3.85;100.00
12793;BME280;6460;42.684;23.260;2024-01-16T02:21:21;93170.47;;;3.48;100.00
12793;BME280;6460;42.684;23.260;2024-01-16T02:23:50;93174.06;;;3.91;100.00
12793;BME280;6460;42.684;23.260;2024-01-16T02:26:19;93176.84;;;3.79;100.00
12793;BME280;6460;42.684;23.260;2024-01-16T02:28:47;93177.09;;;3.89;100.00
12793;BME280;6460;42.684;23.260;2024-01-16T02:31:15;93189.00;;;3.95;100.00
12793;BME280;6460;42.684;23.260;2024-01-16T02:33:43;93166.34;;;4.01;100.00
12793;BME280;6460;42.684;23.260;2024-01-16T02:36:11;93179.56;;;3.98;100.00
12793;BME280;6460;42.684;23.260;2024-01-16T02:38:39;93178.38;;;4.14;100.00
12793;BME280;6460;42.684;23.260;2024-01-16T02:41:09;93184.28;;;4.43;100.00
12793;BME280;6460;42.684;23.260;2024-01-16T02:43:37;93194.91;;;4.43;100.00
12793;BME280;6460;42.684;23.260;2024-01-16T02:46:05;93198.97;;;4.37;100.00
12793;BME280;6460;42.684;23.260;2024-01-16T02:48:34;93227.00;;;4.34;100.00
12793;BME280;6460;42.684;23.260;2024-01-16T02:51:03;93240.09;;;4.23;100.00
12793;BME280;6460;42.684;23.260;2024-01-16T02:53:31;93246.22;;;4.08;100.00
12793;BME280;6460;42.684;23.260;2024-01-16T02:56:00;93252.50;;;4.00;100.00
12793;BME280;6460;42.684;23.260;2024-01-16T02:58:30;93252.69;;;4.26;100.00
12793;BME280;6460;42.684;23.260;2024-01-16T03:00:58;93269.19;;;4.16;100.00
12793;BME280;6460;42.684;23.260;2024-01-16T03:03:26;93266.69;;;4.23;100.00
12793;BME280;6460;42.684;23.260;2024-01-16T03:05:54;93265.81;;;4.54;100.00
12793;BME280;6460;42.684;23.260;2024-01-16T03:08:22;93288.19;;;4.53;100.00
12793;BME280;6460;42.684;23.260;2024-01-16T03:10:51;93305.47;;;4.78;100.00
12793;BME280;6460;42.684;23.260;2024-01-16T03:13:19;93295.94;;;4.77;100.00
12793;BME280;6460;42.684;23.260;2024-01-16T03:15:48;93329.03;;;4.61;100.00
12793;BME280;6460;42.684;23.260;2024-01-16T03:18:16;93341.63;;;4.64;100.00
12793;BME280;6460;42.684;23.260;2024-01-16T03:20:44;93359.69;;;4.55;100.00
12793;BME280;6460;42.684;23.260;2024-01-16T03:23:12;93345.13;;;4.49;100.00
12793;BME280;6460;42.684;23.260;2024-01-16T03:25:40;93366.50;;;4.37;100.00
12793;BME280;6460;42.684;23.260;2024-01-16T03:28:08;93366.75;;;4.32;100.00
12793;BME280;6460;42.684;23.260;2024-01-16T03:30:36;93388.53;;;4.21;100.00
12793;BME280;6460;42.684;23.260;2024-01-16T03:33:06;93386.84;;;4.13;100.00
12793;BME280;6460;42.684;23.260;2024-01-16T03:35:34;93400.81;;;4.10;100.00
12793;BME280;6460;42.684;23.260;2024-01-16T03:38:02;93392.06;;;4.10;100.00
12793;BME280;6460;42.684;23.260;2024-01-16T03:40:31;93404.25;;;3.80;100.00
12793;BME280;6460;42.684;23.260;2024-01-16T03:43:00;93423.44;;;3.89;100.00
12793;BME280;6460;42.684;23.260;2024-01-16T03:45:28;93414.88;;;3.80;100.00
12793;BME280;6460;42.684;23.260;2024-01-16T03:47:56;93428.66;;;3.69;100.00
12793;BME280;6460;42.684;23.260;2024-01-16T03:50:26;93411.53;;;3.55;100.00
12793;BME280;6460;42.684;23.260;2024-01-16T03:52:54;93419.50;;;3.55;100.00
12793;BME280;6460;42.684;23.260;2024-01-16T03:55:22;93424.50;;;3.56;100.00
12793;BME280;6460;42.684;23.260;2024-01-16T03:57:50;93431.25;;;3.54;100.00
12793;BME280;6460;42.684;23.260;2024-01-16T04:00:18;93454.25;;;3.34;100.00
12793;BME280;6460;42.684;23.260;2024-01-16T04:02:46;93444.28;;;3.31;100.00
12793;BME280;6460;42.684;23.260;2024-01-16T04:05:15;93457.47;;;3.28;100.00
12793;BME280;6460;42.684;23.260;2024-01-16T04:07:44;93471.88;;;3.14;100.00
12793;BME280;6460;42.684;23.260;2024-01-16T04:10:12;93477.41;;;3.22;100.00
12793;BME280;6460;42.684;23.260;2024-01-16T04:12:40;93481.97;;;3.09;100.00
12793;BME280;6460;42.684;23.260;2024-01-16T04:15:08;93500.53;;;3.09;100.00
12793;BME280;6460;42.684;23.260;2024-01-16T04:17:36;93479.19;;;3.05;100.00
12793;BME280;6460;42.684;23.260;2024-01-16T04:20:05;93491.81;;;2.96;100.00
12793;BME280;6460;42.684;23.260;2024-01-16T04:22:35;93495.34;;;2.88;100.00
12793;BME280;6460;42.684;23.260;2024-01-16T04:25:06;93502.22;;;2.77;100.00
12793;BME280;6460;42.684;23.260;2024-01-16T04:27:34;93503.19;;;2.85;100.00
12793;BME280;6460;42.684;23.260;2024-01-16T04:30:01;93502.88;;;2.86;100.00
12793;BME280;6460;42.684;23.260;2024-01-16T04:32:30;93520.31;;;2.75;100.00
12793;BME280;6460;42.684;23.260;2024-01-16T04:34:58;93515.03;;;2.51;100.00
12793;BME280;6460;42.684;23.260;2024-01-16T04:37:26;93504.19;;;2.44;100.00
12793;BME280;6460;42.684;23.260;2024-01-16T04:39:54;93506.19;;;2.59;100.00
12793;BME280;6460;42.684;23.260;2024-01-16T04:42:25;93526.06;;;2.65;100.00
12793;BME280;6460;42.684;23.260;2024-01-16T04:44:53;93536.66;;;2.53;100.00
12793;BME280;6460;42.684;23.260;2024-01-16T04:47:21;93555.47;;;2.48;100.00
12793;BME280;6460;42.684;23.260;2024-01-16T04:49:49;93564.88;;;2.57;100.00
12793;BME280;6460;42.684;23.260;2024-01-16T04:52:17;93569.38;;;2.45;100.00
12793;BME280;6460;42.684;23.260;2024-01-16T04:54:45;93577.81;;;2.71;100.00
12793;BME280;6460;42.684;23.260;2024-01-16T04:57:13;93577.47;;;2.73;100.00
12793;BME280;6460;42.684;23.260;2024-01-16T04:59:43;93583.75;;;2.68;100.00
12793;BME280;6460;42.684;23.260;2024-01-16T05:02:10;93589.84;;;2.68;100.00
12793;BME280;6460;42.684;23.260;2024-01-16T05:04:39;93603.88;;;2.69;100.00
12793;BME280;6460;42.684;23.260;2024-01-16T05:07:07;93606.53;;;2.69;100.00
12793;BME280;6460;42.684;23.260;2024-01-16T05:09:35;93620.34;;;2.62;100.00
12793;BME280;6460;42.684;23.260;2024-01-16T05:12:06;93619.34;;;2.55;100.00
12793;BME280;6460;42.684;23.260;2024-01-16T05:14:37;93631.59;;;2.59;100.00
12793;BME280;6460;42.684;23.260;2024-01-16T05:17:07;93643.22;;;2.55;100.00
12793;BME280;6460;42.684;23.260;2024-01-16T05:19:35;93642.97;;;2.48;100.00
12793;BME280;6460;42.684;23.260;2024-01-16T05:22:04;93650.34;;;2.42;100.00
12793;BME280;6460;42.684;23.260;2024-01-16T05:24:32;93666.13;;;2.39;100.00
12793;BME280;6460;42.684;23.260;2024-01-16T05:27:00;93693.94;;;2.33;100.00
12793;BME280;6460;42.684;23.260;2024-01-16T05:29:29;93693.56;;;2.22;100.00
12793;BME280;6460;42.684;23.260;2024-01-16T05:31:57;93703.63;;;2.29;100.00
12793;BME280;6460;42.684;23.260;2024-01-16T05:34:26;93698.97;;;2.26;100.00
12793;BME280;6460;42.684;23.260;2024-01-16T05:36:55;93690.78;;;2.39;100.00
12793;BME280;6460;42.684;23.260;2024-01-16T05:39:23;93693.28;;;2.36;100.00
12793;BME280;6460;42.684;23.260;2024-01-16T05:41:52;93698.91;;;2.34;100.00
12793;BME280;6460;42.684;23.260;2024-01-16T05:44:20;93733.50;;;2.38;100.00
12793;BME280;6460;42.684;23.260;2024-01-16T05:46:48;93722.13;;;2.37;100.00
12793;BME280;6460;42.684;23.260;2024-01-16T05:49:15;93735.31;;;2.25;100.00
12793;BME280;6460;42.684;23.260;2024-01-16T05:51:45;93744.31;;;2.33;100.00
12793;BME280;6460;42.684;23.260;2024-01-16T05:54:13;93732.59;;;2.34;100.00
12793;BME280;6460;42.684;23.260;2024-01-16T05:56:40;93760.47;;;2.19;100.00
12793;BME280;6460;42.684;23.260;2024-01-16T05:59:08;93755.34;;;2.35;100.00
12793;BME280;6460;42.684;23.260;2024-01-16T06:01:36;93766.97;;;2.22;100.00
12793;BME280;6460;42.684;23.260;2024-01-16T06:04:04;93771.63;;;2.25;100.00
12793;BME280;6460;42.684;23.260;2024-01-16T06:06:32;93773.72;;;2.19;100.00
12793;BME280;6460;42.684;23.260;2024-01-16T06:09:00;93774.22;;;2.33;100.00
12793;BME280;6460;42.684;23.260;2024-01-16T06:11:31;93789.47;;;2.16;100.00
12793;BME280;6460;42.684;23.260;2024-01-16T06:14:00;93782.25;;;2.25;100.00
12793;BME280;6460;42.684;23.260;2024-01-16T06:16:28;93780.59;;;2.11;100.00
12793;BME280;6460;42.684;23.260;2024-01-16T06:18:55;93800.63;;;2.30;100.00
12793;BME280;6460;42.684;23.260;2024-01-16T06:21:25;93820.41;;;2.32;100.00
12793;BME280;6460;42.684;23.260;2024-01-16T06:23:53;93823.72;;;2.21;100.00
12793;BME280;6460;42.684;23.260;2024-01-16T06:26:22;93823.56;;;2.26;100.00
12793;BME280;6460;42.684;23.260;2024-01-16T06:28:50;93826.72;;;2.40;100.00
12793;BME280;6460;42.684;23.260;2024-01-16T06:31:17;93829.00;;;2.50;100.00
12793;BME280;6460;42.684;23.260;2024-01-16T06:33:46;93826.50;;;2.53;100.00
12793;BME280;6460;42.684;23.260;2024-01-16T06:36:13;93836.59;;;2.39;100.00
12793;BME280;6460;42.684;23.260;2024-01-16T06:38:42;93831.38;;;2.43;100.00
12793;BME280;6460;42.684;23.260;2024-01-16T06:43:44;93851.72;;;2.39;100.00
12793;BME280;6460;42.684;23.260;2024-01-16T06:46:12;93865.50;;;2.24;100.00
12793;BME280;6460;42.684;23.260;2024-01-16T06:48:40;93871.91;;;2.23;100.00
12793;BME280;6460;42.684;23.260;2024-01-16T06:51:08;93881.94;;;2.08;100.00
12793;BME280;6460;42.684;23.260;2024-01-16T06:53:39;93890.19;;;2.16;100.00
12793;BME280;6460;42.684;23.260;2024-01-16T06:56:07;93903.34;;;2.03;100.00
12793;BME280;6460;42.684;23.260;2024-01-16T06:58:36;93906.69;;;2.21;100.00
12793;BME280;6460;42.684;23.260;2024-01-16T07:01:08;93923.22;;;2.18;100.00
12793;BME280;6460;42.684;23.260;2024-01-16T07:03:36;93915.88;;;2.24;100.00
12793;BME280;6460;42.684;23.260;2024-01-16T07:06:05;93920.63;;;2.09;100.00
12793;BME280;6460;42.684;23.260;2024-01-16T07:08:33;93927.34;;;1.98;100.00
12793;BME280;6460;42.684;23.260;2024-01-16T07:11:02;93935.78;;;1.92;100.00
12793;BME280;6460;42.684;23.260;2024-01-16T07:13:33;93959.13;;;1.98;100.00
12793;BME280;6460;42.684;23.260;2024-01-16T07:16:01;93969.09;;;2.01;100.00
12793;BME280;6460;42.684;23.260;2024-01-16T07:18:31;93980.00;;;2.08;100.00
12793;BME280;6460;42.684;23.260;2024-01-16T07:20:59;93987.19;;;1.99;100.00
12793;BME280;6460;42.684;23.260;2024-01-16T07:23:29;93987.66;;;2.01;100.00
12793;BME280;6460;42.684;23.260;2024-01-16T07:25:57;94005.00;;;1.90;100.00
12793;BME280;6460;42.684;23.260;2024-01-16T07:28:25;93999.69;;;1.90;100.00
12793;BME280;6460;42.684;23.260;2024-01-16T07:30:53;94003.84;;;2.08;100.00
12793;BME280;6460;42.684;23.260;2024-01-16T07:33:21;94013.50;;;2.13;100.00
12793;BME280;6460;42.684;23.260;2024-01-16T07:35:51;94007.63;;;1.99;100.00
12793;BME280;6460;42.684;23.260;2024-01-16T07:38:19;94009.63;;;2.10;100.00
12793;BME280;6460;42.684;23.260;2024-01-16T07:40:47;94022.41;;;2.08;100.00
12793;BME280;6460;42.684;23.260;2024-01-16T07:43:15;94002.78;;;2.09;100.00
12793;BME280;6460;42.684;23.260;2024-01-16T07:45:43;94016.13;;;2.22;100.00
12793;BME280;6460;42.684;23.260;2024-01-16T07:48:11;94035.03;;;2.20;100.00
12793;BME280;6460;42.684;23.260;2024-01-16T07:50:39;94039.88;;;2.09;100.00
12793;BME280;6460;42.684;23.260;2024-01-16T07:53:09;94041.72;;;2.18;100.00
12793;BME280;6460;42.684;23.260;2024-01-16T08:02:21;94043.94;;;1.98;100.00
12793;BME280;6460;42.684;23.260;2024-01-16T08:04:49;94054.50;;;2.16;100.00
12793;BME280;6460;42.684;23.260;2024-01-16T08:07:17;94052.34;;;2.00;100.00
12793;BME280;6460;42.684;23.260;2024-01-16T08:09:46;94063.69;;;2.18;100.00
12793;BME280;6460;42.684;23.260;2024-01-16T08:12:14;94062.44;;;2.33;100.00
12793;BME280;6460;42.684;23.260;2024-01-16T08:14:42;94079.44;;;2.14;100.00
12793;BME280;6460;42.684;23.260;2024-01-16T08:23:54;94106.69;;;2.41;100.00
12793;BME280;6460;42.684;23.260;2024-01-16T08:26:23;94104.16;;;2.53;100.00
12793;BME280;6460;42.684;23.260;2024-01-16T08:28:51;94109.03;;;2.42;100.00
12793;BME280;6460;42.684;23.260;2024-01-16T08:31:18;94121.38;;;2.38;100.00
12793;BME280;6460;42.684;23.260;2024-01-16T08:33:46;94133.66;;;2.43;100.00
12793;BME280;6460;42.684;23.260;2024-01-16T08:36:15;94141.00;;;2.46;100.00
12793;BME280;6460;42.684;23.260;2024-01-16T08:38:43;94134.66;;;2.30;100.00
12793;BME280;6460;42.684;23.260;2024-01-16T08:41:11;94149.44;;;2.31;100.00
12793;BME280;6460;42.684;23.260;2024-01-16T08:43:40;94162.25;;;2.03;100.00
12793;BME280;6460;42.684;23.260;2024-01-16T08:46:08;94168.31;;;2.03;100.00
12793;BME280;6460;42.684;23.260;2024-01-16T08:48:36;94156.31;;;2.06;100.00
12793;BME280;6460;42.684;23.260;2024-01-16T08:51:08;94162.69;;;2.05;100.00
12793;BME280;6460;42.684;23.260;2024-01-16T08:53:40;94172.69;;;1.99;100.00
12793;BME280;6460;42.684;23.260;2024-01-16T08:56:08;94182.50;;;1.99;100.00
12793;BME280;6460;42.684;23.260;2024-01-16T08:58:40;94185.31;;;1.94;100.00
12793;BME280;6460;42.684;23.260;2024-01-16T09:01:07;94185.59;;;1.92;100.00
12793;BME280;6460;42.684;23.260;2024-01-16T09:03:36;94180.34;;;2.01;100.00
12793;BME280;6460;42.684;23.260;2024-01-16T09:06:04;94170.66;;;2.05;100.00
12793;BME280;6460;42.684;23.260;2024-01-16T09:08:32;94171.44;;;2.05;100.00
12793;BME280;6460;42.684;23.260;2024-01-16T09:11:00;94179.09;;;2.16;100.00
12793;BME280;6460;42.684;23.260;2024-01-16T09:13:28;94172.22;;;2.14;100.00
12793;BME280;6460;42.684;23.260;2024-01-16T09:15:57;94183.91;;;2.31;100.00
12793;BME280;6460;42.684;23.260;2024-01-16T09:18:24;94181.13;;;2.36;100.00
12793;BME280;6460;42.684;23.260;2024-01-16T09:20:51;94198.09;;;2.09;100.00
12793;BME280;6460;42.684;23.260;2024-01-16T09:23:20;94190.31;;;2.30;100.00
12793;BME280;6460;42.684;23.260;2024-01-16T09:25:48;94198.28;;;2.30;100.00
12793;BME280;6460;42.684;23.260;2024-01-16T09:28:16;94205.13;;;2.22;100.00
12793;BME280;6460;42.684;23.260;2024-01-16T09:30:44;94208.69;;;2.09;100.00
12793;BME280;6460;42.684;23.260;2024-01-16T09:33:13;94191.84;;;2.31;99.74
12793;BME280;6460;42.684;23.260;2024-01-16T09:35:43;94187.66;;;2.30;98.84
12793;BME280;6460;42.684;23.260;2024-01-16T09:38:11;94188.41;;;2.56;97.96
12793;BME280;6460;42.684;23.260;2024-01-16T09:40:39;94189.84;;;2.45;96.32
12793;BME280;6460;42.684;23.260;2024-01-16T09:43:07;94199.31;;;2.72;95.06
12793;BME280;6460;42.684;23.260;2024-01-16T09:45:37;94192.44;;;2.62;94.36
12793;BME280;6460;42.684;23.260;2024-01-16T09:48:07;94198.66;;;2.92;94.96
12793;BME280;6460;42.684;23.260;2024-01-16T09:50:37;94197.97;;;3.03;91.98
12793;BME280;6460;42.684;23.260;2024-01-16T09:53:05;94189.75;;;2.96;91.72
12793;BME280;6460;42.684;23.260;2024-01-16T09:55:33;94204.81;;;3.22;89.58
12793;BME280;6460;42.684;23.260;2024-01-16T09:58:02;94201.94;;;2.89;87.76
12793;BME280;6460;42.684;23.260;2024-01-16T10:00:30;94193.97;;;2.89;87.15
12793;BME280;6460;42.684;23.260;2024-01-16T10:02:59;94182.53;;;3.05;86.97
12793;BME280;6460;42.684;23.260;2024-01-16T10:05:30;94184.84;;;3.07;86.88
12793;BME280;6460;42.684;23.260;2024-01-16T10:08:00;94184.38;;;3.13;85.87
12793;BME280;6460;42.684;23.260;2024-01-16T10:10:28;94194.31;;;3.34;84.62
12793;BME280;6460;42.684;23.260;2024-01-16T10:12:56;94183.31;;;3.44;82.98
12793;BME280;6460;42.684;23.260;2024-01-16T10:15:24;94179.75;;;3.40;83.75
12793;BME280;6460;42.684;23.260;2024-01-16T10:17:51;94185.44;;;3.59;83.44
12793;BME280;6460;42.684;23.260;2024-01-16T10:20:32;94194.91;;;3.68;82.63
12793;BME280;6460;42.684;23.260;2024-01-16T10:23:02;94194.22;;;3.80;81.81
12793;BME280;6460;42.684;23.260;2024-01-16T10:25:31;94204.53;;;3.52;81.60
12793;BME280;6460;42.684;23.260;2024-01-16T10:28:06;94197.50;;;3.48;82.71
12793;BME280;6460;42.684;23.260;2024-01-16T10:30:37;94210.19;;;3.42;82.19
12793;BME280;6460;42.684;23.260;2024-01-16T10:33:15;94208.66;;;3.33;82.18
12793;BME280;6460;42.684;23.260;2024-01-16T10:35:43;94200.75;;;3.24;83.02
12793;BME280;6460;42.684;23.260;2024-01-16T10:38:20;94197.38;;;3.44;81.86
12793;BME280;6460;42.684;23.260;2024-01-16T10:41:04;94190.66;;;3.76;82.67
12793;BME280;6460;42.684;23.260;2024-01-16T10:43:32;94198.34;;;3.98;83.47
12793;BME280;6460;42.684;23.260;2024-01-16T10:46:07;94211.66;;;3.90;78.55
12793;BME280;6460;42.684;23.260;2024-01-16T10:48:38;94217.81;;;3.52;78.54
12793;BME280;6460;42.684;23.260;2024-01-16T10:51:07;94205.41;;;3.65;78.90
12793;BME280;6460;42.684;23.260;2024-01-16T10:53:42;94186.44;;;3.75;78.20
12793;BME280;6460;42.684;23.260;2024-01-16T10:56:11;94181.38;;;4.11;76.66
12793;BME280;6460;42.684;23.260;2024-01-16T10:58:41;94195.22;;;3.96;75.85
12793;BME280;6460;42.684;23.260;2024-01-16T11:01:10;94192.38;;;4.01;76.28
12793;BME280;6460;42.684;23.260;2024-01-16T11:03:46;94196.41;;;4.28;76.47
12793;BME280;6460;42.684;23.260;2024-01-16T11:06:15;94199.78;;;4.16;75.92
12793;BME280;6460;42.684;23.260;2024-01-16T11:08:47;94194.47;;;4.16;77.41
12793;BME280;6460;42.684;23.260;2024-01-16T11:11:16;94198.34;;;4.40;76.42
12793;BME280;6460;42.684;23.260;2024-01-16T11:13:46;94215.84;;;4.41;77.23
12793;BME280;6460;42.684;23.260;2024-01-16T11:16:14;94223.66;;;4.25;78.43
12793;BME280;6460;42.684;23.260;2024-01-16T11:18:41;94207.13;;;3.90;79.19
12793;BME280;6460;42.684;23.260;2024-01-16T11:21:10;94204.03;;;3.88;79.99
12793;BME280;6460;42.684;23.260;2024-01-16T11:23:38;94204.31;;;3.95;80.94
12793;BME280;6460;42.684;23.260;2024-01-16T11:26:34;94208.47;;;4.05;80.34
12793;BME280;6460;42.684;23.260;2024-01-16T11:32:02;94210.72;;;3.65;81.28
12793;BME280;6460;42.684;23.260;2024-01-16T11:34:54;94221.00;;;3.75;81.06
12793;BME280;6460;42.684;23.260;2024-01-16T11:37:28;94200.63;;;3.50;80.40
12793;BME280;6460;42.684;23.260;2024-01-16T11:40:24;94207.63;;;3.63;82.30
12793;BME280;6460;42.684;23.260;2024-01-16T11:42:54;94200.72;;;3.62;82.62
12793;BME280;6460;42.684;23.260;2024-01-16T11:45:53;94215.66;;;3.75;83.23
12793;BME280;6460;42.684;23.260;2024-01-16T11:48:20;94217.59;;;3.66;84.02
12793;BME280;6460;42.684;23.260;2024-01-16T11:50:48;94216.38;;;3.55;83.21
12793;BME280;6460;42.684;23.260;2024-01-16T11:53:34;94221.94;;;3.33;85.33
12793;BME280;6460;42.684;23.260;2024-01-16T11:59:47;94223.69;;;3.29;86.41
12793;BME280;6460;42.684;23.260;2024-01-16T12:02:31;94227.28;;;3.24;84.35
12793;BME280;6460;42.684;23.260;2024-01-16T12:04:59;94235.22;;;3.33;83.80
12793;BME280;6460;42.684;23.260;2024-01-16T12:07:30;94239.13;;;3.35;83.51
